createdAt,value
2022-07-26T00:03:45.731Z,99892.78
2022-07-26T00:08:48.006Z,99884.97
2022-07-26T00:13:49.534Z,99883.72
2022-07-26T00:18:50.870Z,99896.31
2022-07-26T00:23:52.593Z,99903.28
2022-07-26T00:28:53.994Z,99903.53
2022-07-26T00:33:55.304Z,99903.34
2022-07-26T00:38:56.641Z,99913.16
2022-07-26T00:43:59.748Z,99928.63
2022-07-26T00:49:01.120Z,99929.91
2022-07-26T00:54:04.825Z,99936.56
2022-07-26T00:59:06.664Z,99939.50
2022-07-26T01:04:08.637Z,99945.78
2022-07-26T01:09:11.750Z,99943.03
2022-07-26T01:14:13.320Z,99942.81
2022-07-26T01:19:14.925Z,99939.88
2022-07-26T01:24:16.546Z,99939.88
2022-07-26T01:29:18.080Z,99932.44
2022-07-26T01:34:19.860Z,99935.81
2022-07-26T01:39:21.252Z,99942.66
2022-07-26T01:44:23.718Z,99938.09
2022-07-26T01:49:25.167Z,99943.38
2022-07-26T01:54:26.630Z,99948.81
2022-07-26T01:59:27.978Z,99960.50
2022-07-26T02:04:47.874Z,99951.94
2022-07-26T02:09:49.203Z,99952.16
2022-07-26T02:14:50.783Z,99950.53
2022-07-26T02:19:52.334Z,99952.19
2022-07-26T02:24:53.731Z,99951.88
2022-07-26T02:29:55.084Z,99937.28
2022-07-26T02:34:56.362Z,99943.97
2022-07-26T02:39:57.947Z,99950.25
2022-07-26T02:44:59.504Z,99943.97
2022-07-26T02:50:00.790Z,99947.28
2022-07-26T02:55:02.096Z,99942.25
2022-07-26T03:00:04.638Z,99943.75
2022-07-26T03:05:06.882Z,99953.34
2022-07-26T03:10:08.837Z,99951.88
2022-07-26T03:15:11.279Z,99947.94
2022-07-26T03:20:12.809Z,99951.47
2022-07-26T03:25:14.410Z,99955.69
2022-07-26T03:30:15.828Z,99955.72
2022-07-26T03:35:17.570Z,99954.88
2022-07-26T03:40:20.153Z,99970.13
2022-07-26T03:45:21.598Z,99967.81
2022-07-26T03:50:23.291Z,99958.81
2022-07-26T03:55:47.879Z,99960.72
2022-07-26T04:00:49.351Z,99954.88
2022-07-26T04:05:50.704Z,99961.59
2022-07-26T04:10:54.439Z,99966.59
2022-07-26T04:15:55.796Z,99965.56
2022-07-26T04:20:57.434Z,99969.94
2022-07-26T04:25:58.820Z,99978.09
2022-07-26T04:31:00.843Z,99980.38
2022-07-26T04:36:02.338Z,99972.84
2022-07-26T04:41:03.902Z,99979.75
2022-07-26T04:46:20.490Z,99984.50
2022-07-26T04:51:21.843Z,99977.00
2022-07-26T04:56:23.205Z,99989.34
2022-07-26T05:01:24.542Z,99997.69
2022-07-26T05:06:25.943Z,99991.66
2022-07-26T05:11:27.326Z,99997.28
2022-07-26T05:16:28.907Z,99998.34
2022-07-26T05:21:30.650Z,99997.47
2022-07-26T05:26:32.193Z,99999.59
2022-07-26T05:31:33.520Z,100013.13
2022-07-26T05:36:35.233Z,100012.09
2022-07-26T05:46:38.335Z,100006.88
2022-07-26T05:51:39.742Z,100002.72
2022-07-26T05:56:41.050Z,100009.53
2022-07-26T06:01:42.397Z,100009.09
2022-07-26T06:06:43.776Z,100009.09
2022-07-26T06:11:45.271Z,100019.19
2022-07-26T06:16:47.277Z,100019.19
2022-07-26T06:21:48.804Z,100006.88
2022-07-26T06:26:56.748Z,100017.72
2022-07-26T06:31:58.434Z,100019.59
2022-07-26T06:36:59.969Z,100016.25
2022-07-26T06:42:01.417Z,100004.16
2022-07-26T06:47:02.942Z,100014.16
2022-07-26T06:52:04.681Z,100022.09
2022-07-26T06:57:06.171Z,100018.34
2022-07-26T07:02:07.561Z,100018.53
2022-07-26T07:07:09.163Z,100017.47
2022-07-26T07:12:10.911Z,100015.34
2022-07-26T07:17:16.024Z,100017.19
2022-07-26T07:22:21.339Z,100021.94
2022-07-26T07:27:22.753Z,100035.88
2022-07-26T07:32:24.678Z,100026.22
2022-07-26T07:37:26.345Z,100031.13
2022-07-26T07:42:27.713Z,100042.81
2022-07-26T07:47:29.342Z,100027.00
2022-07-26T07:52:30.737Z,100033.03
2022-07-26T07:57:32.715Z,100029.38
2022-07-26T08:02:34.092Z,100029.66
2022-07-26T08:07:36.399Z,100030.44
2022-07-26T08:12:37.826Z,100015.16
2022-07-26T08:17:41.798Z,100032.75
2022-07-26T08:22:43.611Z,100033.97
2022-07-26T08:27:55.038Z,100028.63
2022-07-26T08:33:04.249Z,100027.47
2022-07-26T08:38:05.658Z,100036.03
2022-07-26T08:43:08.746Z,100038.22
2022-07-26T08:48:18.675Z,100042.47
2022-07-26T08:53:20.802Z,100045.44
2022-07-26T08:58:22.295Z,100051.66
2022-07-26T09:03:26.147Z,100055.28
2022-07-26T09:08:29.666Z,100050.94
2022-07-26T09:13:53.548Z,100049.00
2022-07-26T09:18:56.293Z,100059.00
2022-07-26T09:23:58.593Z,100055.22
2022-07-26T09:29:09.634Z,100061.00
2022-07-26T09:34:11.496Z,100065.53
2022-07-26T09:39:13.158Z,100070.94
2022-07-26T09:44:24.071Z,100074.00
2022-07-26T09:49:30.965Z,100065.84
2022-07-26T09:54:45.847Z,100065.09
2022-07-26T09:59:48.019Z,100065.56
2022-07-26T10:04:49.444Z,100067.19
2022-07-26T10:10:01.512Z,100068.53
2022-07-26T10:15:03.134Z,100073.34
2022-07-26T10:20:09.324Z,100064.69
2022-07-26T10:25:19.972Z,100074.97
2022-07-26T10:30:27.662Z,100081.00
2022-07-26T10:35:44.703Z,100090.09
2022-07-26T10:40:56.892Z,100085.53
2022-07-26T10:46:16.877Z,100089.19
2022-07-26T10:51:31.551Z,100069.13
2022-07-26T10:56:33.929Z,100079.00
2022-07-26T11:01:37.748Z,100064.72
2022-07-26T11:06:40.230Z,100059.31
2022-07-26T11:11:47.166Z,100062.19
2022-07-26T11:16:50.339Z,100060.44
2022-07-26T11:21:59.844Z,100042.94
2022-07-26T11:27:04.417Z,100042.41
2022-07-26T11:32:17.450Z,100041.31
2022-07-26T11:37:19.602Z,100049.41
2022-07-26T11:42:22.134Z,100042.06
2022-07-26T11:47:25.517Z,100035.75
2022-07-26T11:52:31.618Z,100048.63
2022-07-26T11:57:33.336Z,100050.75
2022-07-26T12:02:34.917Z,100055.56
2022-07-26T12:07:36.518Z,100052.47
2022-07-26T12:12:39.393Z,100052.00
2022-07-26T12:17:58.136Z,100054.22
2022-07-26T12:23:04.955Z,100054.97
2022-07-26T12:28:07.577Z,100061.38
2022-07-26T12:33:08.961Z,100051.13
2022-07-26T12:38:10.378Z,100039.78
2022-07-26T12:43:12.236Z,100033.84
2022-07-26T12:48:14.051Z,100042.72
2022-07-26T12:53:15.431Z,100035.44
2022-07-26T12:58:16.806Z,100024.28
2022-07-26T13:03:18.174Z,100019.78
2022-07-26T13:08:19.644Z,100019.81
2022-07-26T13:13:20.997Z,100014.03
2022-07-26T13:18:22.619Z,100017.13
2022-07-26T13:23:26.038Z,100014.50
2022-07-26T13:28:28.362Z,100016.06
2022-07-26T13:33:29.815Z,100021.75
2022-07-26T13:38:33.548Z,100023.25
2022-07-26T13:43:35.406Z,100028.03
2022-07-26T13:48:36.786Z,100017.31
2022-07-26T13:53:55.045Z,100017.50
2022-07-26T13:58:57.078Z,100008.84
2022-07-26T14:03:58.624Z,100019.59
2022-07-26T14:09:00.468Z,100018.09
2022-07-26T14:14:02.105Z,100007.22
2022-07-26T14:19:03.899Z,100009.34
2022-07-26T14:24:05.647Z,100019.19
2022-07-26T14:29:07.255Z,100015.22
2022-07-26T14:34:09.083Z,100006.44
2022-07-26T14:39:10.668Z,100009.50
2022-07-26T14:44:12.369Z,100013.44
2022-07-26T14:49:14.309Z,100000.13
2022-07-26T14:54:16.312Z,99999.09
2022-07-26T14:59:17.811Z,99994.91
2022-07-26T15:04:19.279Z,100006.88
2022-07-26T15:09:20.724Z,100002.22
2022-07-26T15:14:22.089Z,100000.22
2022-07-26T15:19:25.692Z,99996.81
2022-07-26T15:24:28.624Z,99995.56
2022-07-26T15:29:30.085Z,99999.47
2022-07-26T15:34:32.479Z,100004.31
2022-07-26T15:39:33.960Z,99999.59
2022-07-26T15:44:37.993Z,99995.72
2022-07-26T15:49:40.240Z,99997.34
2022-07-26T15:54:42.422Z,99997.22
2022-07-26T15:59:44.004Z,99993.84
2022-07-26T16:04:45.361Z,99989.84
2022-07-26T16:09:46.694Z,99998.63
2022-07-26T16:14:48.635Z,99991.72
2022-07-26T16:19:50.394Z,99986.50
2022-07-26T16:24:51.795Z,99976.34
2022-07-26T16:29:53.207Z,99973.72
2022-07-26T16:34:54.565Z,99981.75
2022-07-26T16:39:56.000Z,99980.25
2022-07-26T16:44:57.386Z,99982.00
2022-07-26T16:49:58.789Z,99969.50
2022-07-26T16:55:00.423Z,99965.59
2022-07-26T17:00:01.914Z,99966.88
2022-07-26T17:05:04.686Z,99979.69
2022-07-26T17:10:08.403Z,99979.25
2022-07-26T17:15:11.004Z,99987.59
2022-07-26T17:20:12.433Z,99994.28
2022-07-26T17:25:13.821Z,99997.25
2022-07-26T17:30:15.258Z,99989.19
2022-07-26T17:35:16.627Z,99995.59
2022-07-26T17:40:17.998Z,99996.88
2022-07-26T17:45:19.835Z,99991.91
2022-07-26T17:50:38.203Z,99994.53
2022-07-26T17:55:40.048Z,99995.19
2022-07-26T18:00:41.580Z,100007.84
2022-07-26T18:05:43.363Z,100004.69
2022-07-26T18:10:50.579Z,100017.81
2022-07-26T18:15:52.655Z,100013.59
2022-07-26T18:20:54.672Z,100021.34
2022-07-26T18:25:57.939Z,100010.16
2022-07-26T18:30:59.395Z,100014.47
2022-07-26T18:36:01.511Z,100027.28
2022-07-26T18:41:03.099Z,100031.59
2022-07-26T18:46:06.312Z,100026.94
2022-07-26T18:51:07.904Z,100022.22
2022-07-26T18:56:09.267Z,100029.78
2022-07-26T19:01:10.736Z,100031.16
2022-07-26T19:06:13.054Z,100030.38
2022-07-26T19:11:14.435Z,100048.19
2022-07-26T19:16:15.923Z,100043.78
2022-07-26T19:21:17.454Z,100045.25
2022-07-26T19:26:18.967Z,100054.50
2022-07-26T19:31:21.364Z,100063.53
2022-07-26T19:36:26.055Z,100066.47
2022-07-26T19:41:27.852Z,100077.03
2022-07-26T19:46:29.474Z,100074.56
2022-07-26T19:51:31.057Z,100079.63
2022-07-26T19:56:32.461Z,100093.06
2022-07-26T20:01:33.999Z,100097.22
2022-07-26T20:06:35.469Z,100109.34
2022-07-26T20:11:36.891Z,100106.47
2022-07-26T20:16:38.310Z,100116.16
2022-07-26T20:21:39.833Z,100111.16
2022-07-26T20:26:41.229Z,100118.91
2022-07-26T20:31:42.988Z,100114.16
2022-07-26T20:36:44.422Z,100123.38
2022-07-26T20:41:45.904Z,100127.81
2022-07-26T20:46:47.409Z,100135.13
2022-07-26T20:51:48.772Z,100135.97
2022-07-26T20:56:50.184Z,100144.34
2022-07-26T21:01:51.654Z,100149.81
2022-07-26T21:06:53.079Z,100163.19
2022-07-26T21:11:54.844Z,100159.25
2022-07-26T21:16:56.274Z,100164.44
2022-07-26T21:21:57.865Z,100166.56
2022-07-26T21:26:59.201Z,100171.13
2022-07-26T21:32:00.690Z,100158.63
2022-07-26T21:37:04.334Z,100169.88
2022-07-26T21:42:05.964Z,100174.53
2022-07-26T21:47:07.404Z,100176.22
2022-07-26T21:52:08.815Z,100187.06
2022-07-26T21:57:10.253Z,100190.44
2022-07-26T22:02:11.801Z,100183.31
2022-07-26T22:07:13.313Z,100191.66
2022-07-26T22:12:14.677Z,100193.56
2022-07-26T22:17:16.016Z,100187.06
2022-07-26T22:22:17.414Z,100182.06
2022-07-26T22:27:18.796Z,100200.38
2022-07-26T22:32:20.201Z,100199.97
2022-07-26T22:37:21.527Z,100197.84
2022-07-26T22:42:22.888Z,100200.78
2022-07-26T22:47:24.385Z,100186.59
2022-07-26T22:52:25.733Z,100179.69
2022-07-26T22:57:27.245Z,100189.88
2022-07-26T23:02:32.039Z,100191.34
2022-07-26T23:07:33.761Z,100194.91
2022-07-26T23:12:35.517Z,100186.97
2022-07-26T23:17:37.613Z,100179.25
2022-07-26T23:22:41.716Z,100184.41
2022-07-26T23:27:43.142Z,100187.94
2022-07-26T23:32:44.528Z,100181.88
2022-07-26T23:37:45.900Z,100187.00
2022-07-26T23:42:48.204Z,100184.28
2022-07-26T23:47:49.650Z,100187.19
2022-07-26T23:52:51.100Z,100188.22
2022-07-26T23:57:52.461Z,100182.59
